sensor_id;sensor_type;location;lat;lon;timestamp;pressure;altitude;pressure_sealevel;temperature;humidity
41654;BME280;68687;52.030;7.110;2024-03-29T00:00:37;98486.09;;;7.42;89.90
41654;BME280;68687;52.030;7.110;2024-03-29T00:03:03;98475.22;;;7.37;89.73
41654;BME280;68687;52.030;7.110;2024-03-29T00:05:29;98484.69;;;7.33;90.04
41654;BME280;68687;52.030;7.110;2024-03-29T00:07:54;98484.03;;;7.37;90.02
41654;BME280;68687;52.030;7.110;2024-03-29T00:10:19;98471.59;;;7.25;90.61
41654;BME280;68687;52.030;7.110;2024-03-29T00:12:45;98467.91;;;7.26;90.79
41654;BME280;68687;52.030;7.110;2024-03-29T00:15:10;98474.44;;;7.30;90.41
41654;BME280;68687;52.030;7.110;2024-03-29T00:17:35;98464.63;;;7.24;90.73
41654;BME280;68687;52.030;7.110;2024-03-29T00:20:01;98502.09;;;7.42;91.22
41654;BME280;68687;52.030;7.110;2024-03-29T00:22:28;98468.78;;;7.20;91.65
41654;BME280;68687;52.030;7.110;2024-03-29T00:24:53;98476.13;;;7.24;91.22
41654;BME280;68687;52.030;7.110;2024-03-29T00:27:18;98454.22;;;7.16;90.88
41654;BME280;68687;52.030;7.110;2024-03-29T00:29:44;98465.50;;;7.18;90.87
41654;BME280;68687;52.030;7.110;2024-03-29T00:32:12;98487.19;;;7.28;90.43
41654;BME280;68687;52.030;7.110;2024-03-29T00:34:37;98477.53;;;7.27;90.82
41654;BME280;68687;52.030;7.110;2024-03-29T00:37:03;98476.19;;;7.11;91.13
41654;BME280;68687;52.030;7.110;2024-03-29T00:39:29;98457.50;;;7.18;90.84
41654;BME280;68687;52.030;7.110;2024-03-29T00:41:54;98456.09;;;7.08;90.90
41654;BME280;68687;52.030;7.110;2024-03-29T00:44:19;98460.59;;;7.15;90.37
41654;BME280;68687;52.030;7.110;2024-03-29T00:46:45;98470.41;;;7.21;90.57
41654;BME280;68687;52.030;7.110;2024-03-29T00:49:10;98449.66;;;7.23;90.00
41654;BME280;68687;52.030;7.110;2024-03-29T00:51:35;98462.13;;;7.29;89.62
41654;BME280;68687;52.030;7.110;2024-03-29T00:54:01;98491.75;;;7.52;88.94
41654;BME280;68687;52.030;7.110;2024-03-29T00:56:26;98452.38;;;7.09;89.56
41654;BME280;68687;52.030;7.110;2024-03-29T00:58:52;98482.28;;;7.25;90.02
41654;BME280;68687;52.030;7.110;2024-03-29T01:01:17;98480.59;;;7.30;88.94
41654;BME280;68687;52.030;7.110;2024-03-29T01:03:43;98491.28;;;7.30;88.70
41654;BME280;68687;52.030;7.110;2024-03-29T01:06:08;98493.50;;;7.33;88.82
41654;BME280;68687;52.030;7.110;2024-03-29T01:08:33;98501.09;;;7.36;88.35
41654;BME280;68687;52.030;7.110;2024-03-29T01:10:58;98494.16;;;7.29;88.52
41654;BME280;68687;52.030;7.110;2024-03-29T01:13:24;98506.03;;;7.33;87.70
41654;BME280;68687;52.030;7.110;2024-03-29T01:15:49;98491.06;;;7.32;87.64
41654;BME280;68687;52.030;7.110;2024-03-29T01:18:14;98498.28;;;7.25;89.03
41654;BME280;68687;52.030;7.110;2024-03-29T01:20:40;98507.28;;;7.30;88.60
41654;BME280;68687;52.030;7.110;2024-03-29T01:23:05;98492.13;;;7.24;88.79
41654;BME280;68687;52.030;7.110;2024-03-29T01:25:30;98499.06;;;7.32;87.70
41654;BME280;68687;52.030;7.110;2024-03-29T01:27:56;98479.78;;;7.30;88.19
41654;BME280;68687;52.030;7.110;2024-03-29T01:30:21;98490.84;;;7.33;88.29
41654;BME280;68687;52.030;7.110;2024-03-29T01:32:47;98496.50;;;7.19;88.62
41654;BME280;68687;52.030;7.110;2024-03-29T01:35:13;98511.75;;;7.36;88.67
41654;BME280;68687;52.030;7.110;2024-03-29T01:37:38;98511.00;;;7.29;88.16
41654;BME280;68687;52.030;7.110;2024-03-29T01:40:04;98503.97;;;7.35;88.08
41654;BME280;68687;52.030;7.110;2024-03-29T01:42:30;98509.31;;;7.35;88.02
41654;BME280;68687;52.030;7.110;2024-03-29T01:44:55;98504.41;;;7.32;87.83
41654;BME280;68687;52.030;7.110;2024-03-29T01:47:21;98507.69;;;7.34;87.96
41654;BME280;68687;52.030;7.110;2024-03-29T01:49:46;98486.75;;;7.31;88.19
41654;BME280;68687;52.030;7.110;2024-03-29T01:52:14;98485.50;;;7.40;88.20
41654;BME280;68687;52.030;7.110;2024-03-29T01:54:42;98475.66;;;7.34;87.30
41654;BME280;68687;52.030;7.110;2024-03-29T01:57:09;98484.63;;;7.46;87.49
41654;BME280;68687;52.030;7.110;2024-03-29T01:59:34;98469.47;;;7.40;86.92
41654;BME280;68687;52.030;7.110;2024-03-29T02:02:00;98477.06;;;7.43;87.07
41654;BME280;68687;52.030;7.110;2024-03-29T02:04:26;98476.00;;;7.44;86.91
41654;BME280;68687;52.030;7.110;2024-03-29T02:06:52;98467.63;;;7.40;86.66
41654;BME280;68687;52.030;7.110;2024-03-29T02:09:17;98490.34;;;7.50;87.92
41654;BME280;68687;52.030;7.110;2024-03-29T02:11:43;98463.50;;;7.38;87.28
41654;BME280;68687;52.030;7.110;2024-03-29T02:14:08;98444.06;;;7.31;88.42
41654;BME280;68687;52.030;7.110;2024-03-29T02:16:34;98449.50;;;7.18;88.14
41654;BME280;68687;52.030;7.110;2024-03-29T02:18:59;98425.31;;;7.12;89.34
41654;BME280;68687;52.030;7.110;2024-03-29T02:21:24;98431.66;;;7.11;89.86
41654;BME280;68687;52.030;7.110;2024-03-29T02:24:19;98445.69;;;7.32;89.28
41654;BME280;68687;52.030;7.110;2024-03-29T02:26:45;98413.56;;;7.20;88.91
41654;BME280;68687;52.030;7.110;2024-03-29T02:29:12;98421.13;;;7.23;88.73
41654;BME280;68687;52.030;7.110;2024-03-29T02:31:38;98409.03;;;7.21;87.80
41654;BME280;68687;52.030;7.110;2024-03-29T02:34:03;98442.00;;;7.33;88.67
41654;BME280;68687;52.030;7.110;2024-03-29T02:36:28;98415.41;;;7.20;89.34
41654;BME280;68687;52.030;7.110;2024-03-29T02:38:54;98439.53;;;7.31;88.56
41654;BME280;68687;52.030;7.110;2024-03-29T02:41:19;98426.41;;;7.30;87.66
41654;BME280;68687;52.030;7.110;2024-03-29T02:43:45;98449.97;;;7.64;86.04
41654;BME280;68687;52.030;7.110;2024-03-29T02:46:10;98456.56;;;7.62;86.04
41654;BME280;68687;52.030;7.110;2024-03-29T02:48:35;98473.38;;;7.69;86.17
41654;BME280;68687;52.030;7.110;2024-03-29T02:51:01;98469.69;;;7.63;86.09
41654;BME280;68687;52.030;7.110;2024-03-29T02:53:26;98462.91;;;7.67;85.74
41654;BME280;68687;52.030;7.110;2024-03-29T02:55:51;98479.94;;;7.66;85.43
41654;BME280;68687;52.030;7.110;2024-03-29T02:58:17;98468.19;;;7.74;85.85
41654;BME280;68687;52.030;7.110;2024-03-29T03:00:42;98476.22;;;7.74;85.30
41654;BME280;68687;52.030;7.110;2024-03-29T03:03:07;98476.75;;;7.83;85.15
41654;BME280;68687;52.030;7.110;2024-03-29T03:05:33;98469.47;;;7.90;85.92
41654;BME280;68687;52.030;7.110;2024-03-29T03:07:58;98462.06;;;7.92;84.54
41654;BME280;68687;52.030;7.110;2024-03-29T03:10:47;98485.06;;;7.93;85.96
41654;BME280;68687;52.030;7.110;2024-03-29T03:13:21;98476.09;;;7.87;85.96
41654;BME280;68687;52.030;7.110;2024-03-29T03:15:47;98470.91;;;7.92;85.54
41654;BME280;68687;52.030;7.110;2024-03-29T03:18:12;98471.56;;;7.88;85.29
41654;BME280;68687;52.030;7.110;2024-03-29T03:20:38;98437.84;;;7.68;85.29
41654;BME280;68687;52.030;7.110;2024-03-29T03:23:03;98456.94;;;7.90;85.29
41654;BME280;68687;52.030;7.110;2024-03-29T03:25:29;98445.28;;;7.85;84.23
41654;BME280;68687;52.030;7.110;2024-03-29T03:27:54;98444.84;;;7.88;84.91
41654;BME280;68687;52.030;7.110;2024-03-29T03:30:19;98462.06;;;7.92;84.46
41654;BME280;68687;52.030;7.110;2024-03-29T03:32:45;98463.28;;;7.96;84.46
41654;BME280;68687;52.030;7.110;2024-03-29T03:35:10;98465.50;;;8.24;83.64
41654;BME280;68687;52.030;7.110;2024-03-29T03:37:36;98450.91;;;8.01;84.07
41654;BME280;68687;52.030;7.110;2024-03-29T03:40:01;98466.19;;;8.13;83.74
41654;BME280;68687;52.030;7.110;2024-03-29T03:42:26;98468.00;;;8.19;83.35
41654;BME280;68687;52.030;7.110;2024-03-29T03:44:52;98456.47;;;8.18;81.63
41654;BME280;68687;52.030;7.110;2024-03-29T03:47:17;98468.00;;;8.19;83.12
41654;BME280;68687;52.030;7.110;2024-03-29T03:49:42;98483.53;;;8.28;84.51
41654;BME280;68687;52.030;7.110;2024-03-29T03:52:08;98456.44;;;8.25;82.38
41654;BME280;68687;52.030;7.110;2024-03-29T03:54:33;98462.53;;;8.32;82.46
41654;BME280;68687;52.030;7.110;2024-03-29T03:56:59;98483.72;;;8.33;81.46
41654;BME280;68687;52.030;7.110;2024-03-29T03:59:25;98493.75;;;8.38;83.84
41654;BME280;68687;52.030;7.110;2024-03-29T04:01:50;98495.00;;;8.35;84.38
41654;BME280;68687;52.030;7.110;2024-03-29T04:04:17;98488.91;;;8.47;85.42
41654;BME280;68687;52.030;7.110;2024-03-29T04:06:43;98505.47;;;8.37;85.96
41654;BME280;68687;52.030;7.110;2024-03-29T04:09:08;98499.19;;;8.25;87.93
41654;BME280;68687;52.030;7.110;2024-03-29T04:11:33;98519.09;;;8.54;88.02
41654;BME280;68687;52.030;7.110;2024-03-29T04:13:59;98515.84;;;8.52;87.96
41654;BME280;68687;52.030;7.110;2024-03-29T04:16:24;98518.06;;;8.55;87.35
41654;BME280;68687;52.030;7.110;2024-03-29T04:18:50;98522.25;;;8.19;90.17
41654;BME280;68687;52.030;7.110;2024-03-29T04:21:15;98524.34;;;8.17;91.64
41654;BME280;68687;52.030;7.110;2024-03-29T04:23:41;98536.34;;;8.08;94.01
41654;BME280;68687;52.030;7.110;2024-03-29T04:26:06;98523.88;;;8.20;92.40
41654;BME280;68687;52.030;7.110;2024-03-29T04:28:32;98537.16;;;8.09;94.00
41654;BME280;68687;52.030;7.110;2024-03-29T04:30:58;98517.13;;;7.93;96.16
41654;BME280;68687;52.030;7.110;2024-03-29T04:33:24;98511.47;;;7.83;98.44
41654;BME280;68687;52.030;7.110;2024-03-29T04:35:59;98525.97;;;7.93;100.00
41654;BME280;68687;52.030;7.110;2024-03-29T04:38:26;98520.44;;;7.95;100.00
41654;BME280;68687;52.030;7.110;2024-03-29T04:40:53;98532.25;;;7.81;100.00
41654;BME280;68687;52.030;7.110;2024-03-29T04:43:22;98525.84;;;7.82;100.00
41654;BME280;68687;52.030;7.110;2024-03-29T04:45:48;98528.63;;;7.93;100.00
41654;BME280;68687;52.030;7.110;2024-03-29T04:48:14;98527.06;;;7.86;100.00
41654;BME280;68687;52.030;7.110;2024-03-29T04:50:39;98504.72;;;7.80;100.00
41654;BME280;68687;52.030;7.110;2024-03-29T04:53:05;98513.38;;;7.75;100.00
41654;BME280;68687;52.030;7.110;2024-03-29T04:55:32;98528.41;;;7.70;100.00
41654;BME280;68687;52.030;7.110;2024-03-29T04:57:57;98514.53;;;7.55;100.00
41654;BME280;68687;52.030;7.110;2024-03-29T05:00:23;98531.88;;;7.39;100.00
41654;BME280;68687;52.030;7.110;2024-03-29T05:02:48;98546.47;;;7.36;100.00
41654;BME280;68687;52.030;7.110;2024-03-29T05:05:13;98528.69;;;7.24;100.00
41654;BME280;68687;52.030;7.110;2024-03-29T05:07:39;98541.66;;;7.13;100.00
41654;BME280;68687;52.030;7.110;2024-03-29T05:10:04;98516.28;;;6.98;100.00
41654;BME280;68687;52.030;7.110;2024-03-29T05:12:33;98541.97;;;6.92;100.00
41654;BME280;68687;52.030;7.110;2024-03-29T05:14:58;98537.38;;;7.06;100.00
41654;BME280;68687;52.030;7.110;2024-03-29T05:17:24;98542.31;;;7.02;100.00
41654;BME280;68687;52.030;7.110;2024-03-29T05:19:53;98549.72;;;7.00;100.00
41654;BME280;68687;52.030;7.110;2024-03-29T05:22:18;98551.41;;;6.88;100.00
41654;BME280;68687;52.030;7.110;2024-03-29T05:24:44;98571.47;;;6.97;100.00
41654;BME280;68687;52.030;7.110;2024-03-29T05:27:10;98555.91;;;6.81;100.00
41654;BME280;68687;52.030;7.110;2024-03-29T05:29:36;98550.63;;;6.74;100.00
41654;BME280;68687;52.030;7.110;2024-03-29T05:32:01;98559.25;;;6.70;100.00
41654;BME280;68687;52.030;7.110;2024-03-29T05:34:26;98553.50;;;6.73;100.00
41654;BME280;68687;52.030;7.110;2024-03-29T05:36:52;98557.78;;;6.74;100.00
41654;BME280;68687;52.030;7.110;2024-03-29T05:39:17;98544.69;;;6.66;100.00
41654;BME280;68687;52.030;7.110;2024-03-29T05:41:44;98543.69;;;6.54;100.00
41654;BME280;68687;52.030;7.110;2024-03-29T05:44:09;98538.78;;;6.50;100.00
41654;BME280;68687;52.030;7.110;2024-03-29T05:46:34;98560.28;;;6.62;100.00
41654;BME280;68687;52.030;7.110;2024-03-29T05:49:00;98543.28;;;6.50;100.00
41654;BME280;68687;52.030;7.110;2024-03-29T05:51:25;98545.75;;;6.51;100.00
41654;BME280;68687;52.030;7.110;2024-03-29T05:53:50;98533.06;;;6.40;100.00
41654;BME280;68687;52.030;7.110;2024-03-29T05:56:16;98544.53;;;6.47;100.00
41654;BME280;68687;52.030;7.110;2024-03-29T05:58:41;98521.78;;;6.38;100.00
41654;BME280;68687;52.030;7.110;2024-03-29T06:01:07;98530.59;;;6.39;100.00
41654;BME280;68687;52.030;7.110;2024-03-29T06:03:32;98534.28;;;6.38;100.00
41654;BME280;68687;52.030;7.110;2024-03-29T06:05:58;98535.53;;;6.35;100.00
41654;BME280;68687;52.030;7.110;2024-03-29T06:08:23;98540.81;;;6.48;100.00
41654;BME280;68687;52.030;7.110;2024-03-29T06:10:51;98524.84;;;6.42;100.00
41654;BME280;68687;52.030;7.110;2024-03-29T06:13:17;98542.69;;;6.41;100.00
41654;BME280;68687;52.030;7.110;2024-03-29T06:15:54;98547.59;;;6.44;100.00
41654;BME280;68687;52.030;7.110;2024-03-29T06:18:38;98549.22;;;6.52;100.00
41654;BME280;68687;52.030;7.110;2024-03-29T06:21:04;98535.53;;;6.35;100.00
41654;BME280;68687;52.030;7.110;2024-03-29T06:23:29;98527.72;;;6.27;100.00
41654;BME280;68687;52.030;7.110;2024-03-29T06:25:54;98534.09;;;6.33;100.00
41654;BME280;68687;52.030;7.110;2024-03-29T06:28:20;98539.00;;;6.29;100.00
41654;BME280;68687;52.030;7.110;2024-03-29T06:30:45;98527.72;;;6.40;100.00
41654;BME280;68687;52.030;7.110;2024-03-29T06:33:11;98522.00;;;6.37;100.00
41654;BME280;68687;52.030;7.110;2024-03-29T06:35:36;98535.13;;;6.38;100.00
41654;BME280;68687;52.030;7.110;2024-03-29T06:38:02;98535.31;;;6.43;100.00
41654;BME280;68687;52.030;7.110;2024-03-29T06:40:27;98520.75;;;6.39;100.00
41654;BME280;68687;52.030;7.110;2024-03-29T06:42:52;98555.78;;;6.49;100.00
41654;BME280;68687;52.030;7.110;2024-03-29T06:45:21;98543.31;;;6.43;100.00
41654;BME280;68687;52.030;7.110;2024-03-29T06:47:46;98534.06;;;6.59;100.00
41654;BME280;68687;52.030;7.110;2024-03-29T06:50:12;98523.59;;;6.51;100.00
41654;BME280;68687;52.030;7.110;2024-03-29T06:52:37;98524.44;;;6.58;100.00
41654;BME280;68687;52.030;7.110;2024-03-29T06:55:03;98519.91;;;6.59;100.00
41654;BME280;68687;52.030;7.110;2024-03-29T06:57:28;98508.19;;;6.66;100.00
41654;BME280;68687;52.030;7.110;2024-03-29T06:59:56;98498.53;;;6.72;100.00
41654;BME280;68687;52.030;7.110;2024-03-29T07:02:21;98515.31;;;6.79;100.00
41654;BME280;68687;52.030;7.110;2024-03-29T07:04:47;98481.94;;;6.70;100.00
41654;BME280;68687;52.030;7.110;2024-03-29T07:07:12;98486.22;;;6.71;100.00
41654;BME280;68687;52.030;7.110;2024-03-29T07:09:38;98476.16;;;6.73;100.00
41654;BME280;68687;52.030;7.110;2024-03-29T07:12:03;98476.34;;;6.78;100.00
41654;BME280;68687;52.030;7.110;2024-03-29T07:14:29;98492.91;;;6.93;100.00
41654;BME280;68687;52.030;7.110;2024-03-29T07:16:56;98511.41;;;6.88;100.00
41654;BME280;68687;52.030;7.110;2024-03-29T07:19:22;98503.47;;;7.20;100.00
41654;BME280;68687;52.030;7.110;2024-03-29T07:21:48;98501.81;;;7.82;100.00
41654;BME280;68687;52.030;7.110;2024-03-29T07:24:13;98462.41;;;8.20;100.00
41654;BME280;68687;52.030;7.110;2024-03-29T07:26:39;98476.16;;;8.67;100.00
41654;BME280;68687;52.030;7.110;2024-03-29T07:29:05;98497.81;;;8.41;100.00
41654;BME280;68687;52.030;7.110;2024-03-29T07:31:34;98480.00;;;8.34;100.00
41654;BME280;68687;52.030;7.110;2024-03-29T07:34:00;98472.16;;;8.58;100.00
41654;BME280;68687;52.030;7.110;2024-03-29T07:36:25;98491.88;;;8.39;100.00
41654;BME280;68687;52.030;7.110;2024-03-29T07:38:56;98470.88;;;8.17;100.00
41654;BME280;68687;52.030;7.110;2024-03-29T07:41:21;98464.25;;;8.45;100.00
41654;BME280;68687;52.030;7.110;2024-03-29T07:43:56;98458.47;;;8.48;100.00
41654;BME280;68687;52.030;7.110;2024-03-29T07:46:32;98465.91;;;8.64;100.00
41654;BME280;68687;52.030;7.110;2024-03-29T07:48:58;98472.34;;;8.93;100.00
41654;BME280;68687;52.030;7.110;2024-03-29T07:51:23;98490.41;;;8.61;100.00
41654;BME280;68687;52.030;7.110;2024-03-29T07:53:48;98491.34;;;8.30;100.00
41654;BME280;68687;52.030;7.110;2024-03-29T07:56:14;98507.16;;;8.31;100.00
41654;BME280;68687;52.030;7.110;2024-03-29T07:58:39;98498.59;;;8.66;100.00
41654;BME280;68687;52.030;7.110;2024-03-29T08:01:04;98513.75;;;8.72;100.00
41654;BME280;68687;52.030;7.110;2024-03-29T08:03:31;98501.41;;;8.53;100.00
41654;BME280;68687;52.030;7.110;2024-03-29T08:08:25;98497.09;;;9.37;100.00
41654;BME280;68687;52.030;7.110;2024-03-29T08:10:52;98514.31;;;9.71;100.00
41654;BME280;68687;52.030;7.110;2024-03-29T08:13:18;98509.94;;;9.88;100.00
41654;BME280;68687;52.030;7.110;2024-03-29T08:15:46;98506.66;;;9.86;100.00
41654;BME280;68687;52.030;7.110;2024-03-29T08:18:11;98497.19;;;9.60;100.00
41654;BME280;68687;52.030;7.110;2024-03-29T08:20:37;98497.34;;;9.88;100.00
41654;BME280;68687;52.030;7.110;2024-03-29T08:23:03;98511.78;;;9.46;100.00
41654;BME280;68687;52.030;7.110;2024-03-29T08:25:29;98509.50;;;9.31;100.00
41654;BME280;68687;52.030;7.110;2024-03-29T08:27:54;98504.13;;;9.19;100.00
41654;BME280;68687;52.030;7.110;2024-03-29T08:30:24;98512.47;;;9.41;100.00
41654;BME280;68687;52.030;7.110;2024-03-29T08:32:50;98489.31;;;9.35;100.00
41654;BME280;68687;52.030;7.110;2024-03-29T08:35:17;98496.28;;;9.36;100.00
41654;BME280;68687;52.030;7.110;2024-03-29T08:37:43;98506.34;;;9.52;100.00
41654;BME280;68687;52.030;7.110;2024-03-29T08:40:09;98493.91;;;9.28;100.00
41654;BME280;68687;52.030;7.110;2024-03-29T08:42:34;98509.59;;;9.54;100.00
41654;BME280;68687;52.030;7.110;2024-03-29T08:45:02;98476.97;;;9.46;100.00
41654;BME280;68687;52.030;7.110;2024-03-29T08:47:28;98491.13;;;10.30;100.00
41654;BME280;68687;52.030;7.110;2024-03-29T08:49:54;98477.13;;;10.51;100.00
41654;BME280;68687;52.030;7.110;2024-03-29T08:52:19;98490.88;;;10.43;100.00
41654;BME280;68687;52.030;7.110;2024-03-29T08:54:44;98479.75;;;10.63;100.00
41654;BME280;68687;52.030;7.110;2024-03-29T08:57:10;98492.28;;;10.34;100.00
41654;BME280;68687;52.030;7.110;2024-03-29T08:59:35;98499.63;;;10.38;100.00
41654;BME280;68687;52.030;7.110;2024-03-29T09:02:05;98517.69;;;10.31;100.00
41654;BME280;68687;52.030;7.110;2024-03-29T09:04:33;98518.94;;;10.17;100.00
41654;BME280;68687;52.030;7.110;2024-03-29T09:07:01;98513.16;;;10.43;100.00
41654;BME280;68687;52.030;7.110;2024-03-29T09:09:31;98523.75;;;10.50;100.00
41654;BME280;68687;52.030;7.110;2024-03-29T09:11:56;98511.38;;;10.72;100.00
41654;BME280;68687;52.030;7.110;2024-03-29T09:14:23;98517.91;;;10.76;100.00
41654;BME280;68687;52.030;7.110;2024-03-29T09:16:49;98533.78;;;10.66;100.00
41654;BME280;68687;52.030;7.110;2024-03-29T09:19:15;98531.06;;;11.01;100.00
41654;BME280;68687;52.030;7.110;2024-03-29T09:21:40;98512.78;;;10.75;100.00
41654;BME280;68687;52.030;7.110;2024-03-29T09:24:06;98525.47;;;11.31;100.00
41654;BME280;68687;52.030;7.110;2024-03-29T09:26:32;98524.03;;;11.40;100.00
41654;BME280;68687;52.030;7.110;2024-03-29T09:28:57;98527.91;;;10.93;100.00
41654;BME280;68687;52.030;7.110;2024-03-29T09:31:23;98526.03;;;10.93;100.00
41654;BME280;68687;52.030;7.110;2024-03-29T09:33:48;98534.56;;;11.02;100.00
41654;BME280;68687;52.030;7.110;2024-03-29T09:36:20;98545.97;;;11.09;100.00
41654;BME280;68687;52.030;7.110;2024-03-29T09:38:46;98531.66;;;10.80;100.00
41654;BME280;68687;52.030;7.110;2024-03-29T09:41:15;98561.50;;;11.07;100.00
41654;BME280;68687;52.030;7.110;2024-03-29T09:43:46;98538.16;;;11.07;100.00
41654;BME280;68687;52.030;7.110;2024-03-29T09:46:17;98542.78;;;10.72;100.00
41654;BME280;68687;52.030;7.110;2024-03-29T09:48:44;98554.41;;;10.89;100.00
41654;BME280;68687;52.030;7.110;2024-03-29T09:51:13;98549.03;;;10.89;100.00
41654;BME280;68687;52.030;7.110;2024-03-29T09:53:43;98555.00;;;10.79;100.00
41654;BME280;68687;52.030;7.110;2024-03-29T09:56:09;98551.47;;;10.91;100.00
41654;BME280;68687;52.030;7.110;2024-03-29T09:58:36;98547.78;;;10.45;100.00
41654;BME280;68687;52.030;7.110;2024-03-29T10:01:03;98546.25;;;10.37;100.00
41654;BME280;68687;52.030;7.110;2024-03-29T10:03:29;98539.72;;;10.57;100.00
41654;BME280;68687;52.030;7.110;2024-03-29T10:05:59;98534.50;;;10.50;100.00
41654;BME280;68687;52.030;7.110;2024-03-29T10:08:27;98536.13;;;10.74;100.00
41654;BME280;68687;52.030;7.110;2024-03-29T10:10:54;98548.34;;;10.82;100.00
41654;BME280;68687;52.030;7.110;2024-03-29T10:13:19;98535.06;;;10.52;100.00
41654;BME280;68687;52.030;7.110;2024-03-29T10:15:46;98553.16;;;10.68;100.00
41654;BME280;68687;52.030;7.110;2024-03-29T10:18:15;98558.34;;;11.10;100.00
41654;BME280;68687;52.030;7.110;2024-03-29T10:20:40;98556.06;;;11.30;100.00
41654;BME280;68687;52.030;7.110;2024-03-29T10:23:06;98564.28;;;11.12;100.00
41654;BME280;68687;52.030;7.110;2024-03-29T10:25:33;98560.34;;;11.03;100.00
41654;BME280;68687;52.030;7.110;2024-03-29T10:27:59;98571.78;;;10.98;100.00
41654;BME280;68687;52.030;7.110;2024-03-29T10:30:27;98595.34;;;11.48;100.00
41654;BME280;68687;52.030;7.110;2024-03-29T10:32:52;98592.53;;;11.14;100.00
41654;BME280;68687;52.030;7.110;2024-03-29T10:35:19;98581.63;;;11.33;100.00
41654;BME280;68687;52.030;7.110;2024-03-29T10:37:45;98581.59;;;11.44;100.00
41654;BME280;68687;52.030;7.110;2024-03-29T10:40:11;98598.69;;;11.67;100.00
41654;BME280;68687;52.030;7.110;2024-03-29T10:42:40;98599.19;;;11.24;100.00
41654;BME280;68687;52.030;7.110;2024-03-29T10:45:09;98581.72;;;11.38;100.00
41654;BME280;68687;52.030;7.110;2024-03-29T10:47:35;98570.75;;;11.39;100.00
41654;BME280;68687;52.030;7.110;2024-03-29T10:50:04;98592.34;;;11.73;100.00
41654;BME280;68687;52.030;7.110;2024-03-29T10:52:30;98565.13;;;11.81;100.00
41654;BME280;68687;52.030;7.110;2024-03-29T10:54:56;98605.22;;;11.83;100.00
41654;BME280;68687;52.030;7.110;2024-03-29T10:57:28;98583.94;;;11.81;100.00
41654;BME280;68687;52.030;7.110;2024-03-29T11:00:03;98574.91;;;11.47;100.00
41654;BME280;68687;52.030;7.110;2024-03-29T11:02:45;98591.19;;;11.69;100.00
41654;BME280;68687;52.030;7.110;2024-03-29T11:05:14;98592.69;;;11.76;100.00
41654;BME280;68687;52.030;7.110;2024-03-29T11:07:41;98581.44;;;11.91;100.00
41654;BME280;68687;52.030;7.110;2024-03-29T11:10:12;98576.16;;;11.96;100.00
41654;BME280;68687;52.030;7.110;2024-03-29T11:12:59;98598.44;;;12.09;100.00
41654;BME280;68687;52.030;7.110;2024-03-29T11:15:30;98578.97;;;11.61;100.00
41654;BME280;68687;52.030;7.110;2024-03-29T11:17:56;98597.47;;;11.86;100.00
41654;BME280;68687;52.030;7.110;2024-03-29T11:20:31;98595.06;;;12.01;100.00
41654;BME280;68687;52.030;7.110;2024-03-29T11:23:04;98588.47;;;12.26;100.00
41654;BME280;68687;52.030;7.110;2024-03-29T11:25:42;98600.56;;;12.40;100.00
41654;BME280;68687;52.030;7.110;2024-03-29T11:28:12;98606.22;;;12.94;100.00
41654;BME280;68687;52.030;7.110;2024-03-29T11:31:02;98605.31;;;13.44;100.00
41654;BME280;68687;52.030;7.110;2024-03-29T11:36:21;98600.53;;;13.51;97.80
41654;BME280;68687;52.030;7.110;2024-03-29T11:38:52;98599.09;;;13.43;96.15
41654;BME280;68687;52.030;7.110;2024-03-29T11:41:22;98602.16;;;13.74;95.90
41654;BME280;68687;52.030;7.110;2024-03-29T11:43:52;98603.44;;;13.44;91.28
41654;BME280;68687;52.030;7.110;2024-03-29T11:46:18;98591.38;;;14.01;91.43
41654;BME280;68687;52.030;7.110;2024-03-29T11:48:47;98611.50;;;14.47;89.46
41654;BME280;68687;52.030;7.110;2024-03-29T11:51:20;98599.84;;;14.78;88.06
41654;BME280;68687;52.030;7.110;2024-03-29T11:53:48;98578.63;;;13.96;86.09
41654;BME280;68687;52.030;7.110;2024-03-29T11:56:17;98604.94;;;13.84;88.63
41654;BME280;68687;52.030;7.110;2024-03-29T11:58:43;98619.09;;;14.23;89.40
41654;BME280;68687;52.030;7.110;2024-03-29T12:01:09;98624.13;;;14.41;88.99
41654;BME280;68687;52.030;7.110;2024-03-29T12:03:38;98612.22;;;13.83;85.99
41654;BME280;68687;52.030;7.110;2024-03-29T12:06:04;98605.84;;;14.21;86.89
41654;BME280;68687;52.030;7.110;2024-03-29T12:08:36;98629.13;;;14.28;87.95
41654;BME280;68687;52.030;7.110;2024-03-29T12:11:03;98618.03;;;13.70;90.08
41654;BME280;68687;52.030;7.110;2024-03-29T12:13:29;98650.28;;;13.21;90.52
41654;BME280;68687;52.030;7.110;2024-03-29T12:15:55;98661.25;;;13.37;91.61
41654;BME280;68687;52.030;7.110;2024-03-29T12:18:21;98647.66;;;13.26;90.92
41654;BME280;68687;52.030;7.110;2024-03-29T12:20:48;98659.69;;;13.41;92.10
41654;BME280;68687;52.030;7.110;2024-03-29T12:23:15;98644.13;;;13.43;92.09
41654;BME280;68687;52.030;7.110;2024-03-29T12:25:41;98639.19;;;13.40;93.57
41654;BME280;68687;52.030;7.110;2024-03-29T12:28:08;98659.09;;;13.17;92.39
41654;BME280;68687;52.030;7.110;2024-03-29T12:30:34;98653.72;;;13.00;93.59
41654;BME280;68687;52.030;7.110;2024-03-29T12:33:06;98670.72;;;13.39;93.99
41654;BME280;68687;52.030;7.110;2024-03-29T12:35:33;98647.66;;;13.10;94.10
41654;BME280;68687;52.030;7.110;2024-03-29T12:37:59;98654.94;;;13.26;92.68
41654;BME280;68687;52.030;7.110;2024-03-29T12:40:30;98687.03;;;13.49;92.39
41654;BME280;68687;52.030;7.110;2024-03-29T12:43:03;98683.44;;;13.22;92.90
41654;BME280;68687;52.030;7.110;2024-03-29T12:45:29;98672.03;;;13.37;91.60
41654;BME280;68687;52.030;7.110;2024-03-29T12:47:55;98663.31;;;13.29;92.02
41654;BME280;68687;52.030;7.110;2024-03-29T12:50:33;98691.00;;;13.25;93.23
41654;BME280;68687;52.030;7.110;2024-03-29T12:53:00;98673.03;;;13.30;92.60
41654;BME280;68687;52.030;7.110;2024-03-29T12:55:28;98676.69;;;13.63;92.46
41654;BME280;68687;52.030;7.110;2024-03-29T12:57:55;98694.00;;;14.11;92.49
41654;BME280;68687;52.030;7.110;2024-03-29T13:00:21;98669.41;;;13.64;92.13
41654;BME280;68687;52.030;7.110;2024-03-29T13:02:46;98672.16;;;13.90;93.07
41654;BME280;68687;52.030;7.110;2024-03-29T13:05:12;98668.53;;;13.58;93.68